Time;durP1;ratioP1;P1;durP2;ratioP2;P2;SDS_P1;SDS_P2;PMS_P1;PMS_P2;Temp;Humidity;BMP_temperature;BMP_pressure;BME280_temperature;BME280_humidity;BME280_pressure;Samples;Min_cycle;Max_cycle;Signal;HPM_P1;HPM_P2
2024/01/24 00:00:04;;;;;;;0.95;0.95;;;;;;;6.22;55.79;102490.22;4898397;29;20394;-88
2024/01/24 00:02:29;;;;;;;0.70;0.40;;;;;;;6.27;55.60;102496.03;4897298;29;20435;-87
2024/01/24 00:04:55;;;;;;;1.37;0.97;;;;;;;6.22;55.81;102507.81;4896774;29;20796;-87
2024/01/24 00:07:21;;;;;;;0.70;0.50;;;;;;;6.16;55.80;102498.50;4897019;29;20386;-87
2024/01/24 00:09:46;;;;;;;0.40;0.40;;;;;;;6.32;55.79;102509.75;4896678;29;20937;-87
2024/01/24 00:12:12;;;;;;;1.15;0.90;;;;;;;6.06;56.63;102521.94;4896692;29;20941;-87
2024/01/24 00:14:37;;;;;;;0.83;0.67;;;;;;;6.17;56.54;102517.78;4896750;29;20458;-87
2024/01/24 00:17:03;;;;;;;0.70;0.50;;;;;;;6.15;56.56;102530.19;4896669;29;20466;-86
2024/01/24 00:19:29;;;;;;;0.30;0.30;;;;;;;6.13;56.15;102517.97;4898154;29;20407;-85
2024/01/24 00:21:55;;;;;;;0.57;0.55;;;;;;;6.37;55.98;102525.25;4895454;29;20437;-89
2024/01/24 00:24:21;;;;;;;0.55;0.50;;;;;;;6.47;55.39;102531.63;4897007;29;20402;-88
2024/01/24 00:26:47;;;;;;;1.05;0.95;;;;;;;6.57;54.80;102515.22;4894958;29;20405;-89
2024/01/24 00:29:12;;;;;;;1.00;0.68;;;;;;;6.93;54.17;102508.50;4894614;29;20405;-86
2024/01/24 00:31:38;;;;;;;1.10;1.00;;;;;;;7.13;53.91;102509.78;4895708;29;20504;-87
2024/01/24 00:34:04;;;;;;;0.57;0.57;;;;;;;7.15;53.49;102514.03;4896236;29;20401;-88
2024/01/24 00:36:29;;;;;;;0.93;0.67;;;;;;;7.05;53.64;102520.88;4895658;29;20486;-87
2024/01/24 00:38:55;;;;;;;0.90;0.90;;;;;;;6.81;54.02;102512.81;4896032;29;20521;-87
2024/01/24 00:41:20;;;;;;;0.70;0.70;;;;;;;6.88;53.92;102520.19;4895835;29;20421;-87
2024/01/24 00:43:46;;;;;;;0.40;0.40;;;;;;;7.06;53.56;102517.28;4895744;29;20407;-86
2024/01/24 00:46:12;;;;;;;1.73;1.63;;;;;;;7.01;53.50;102520.22;4895810;29;20489;-86
2024/01/24 00:48:37;;;;;;;0.50;0.50;;;;;;;6.74;54.08;102514.97;4895672;29;20837;-85
2024/01/24 00:51:03;;;;;;;0.70;0.70;;;;;;;6.72;54.38;102513.38;4895555;29;20442;-86
2024/01/24 00:53:29;;;;;;;1.63;1.15;;;;;;;6.72;54.37;102516.00;4895315;29;20457;-86
2024/01/24 00:55:56;;;;;;;1.70;1.20;;;;;;;6.64;54.60;102517.34;4895173;29;20399;-86
2024/01/24 00:58:22;;;;;;;1.35;1.05;;;;;;;6.66;54.76;102523.41;4895245;29;20406;-86
2024/01/24 01:00:48;;;;;;;2.80;0.82;;;;;;;6.28;55.71;102515.31;4895677;29;20408;-86
2024/01/24 01:03:14;;;;;;;0.68;0.50;;;;;;;6.26;56.12;102511.94;4896605;29;20402;-88
2024/01/24 01:05:39;;;;;;;0.98;0.85;;;;;;;6.23;56.55;102512.13;4895322;29;20429;-86
2024/01/24 01:08:05;;;;;;;1.35;0.73;;;;;;;6.28;55.86;102523.22;4895068;29;20402;-86
2024/01/24 01:10:31;;;;;;;0.85;0.75;;;;;;;6.10;56.37;102526.09;4894748;29;20421;-86
2024/01/24 01:12:57;;;;;;;0.93;0.80;;;;;;;6.22;56.19;102519.19;4895020;29;20411;-86
2024/01/24 01:15:24;;;;;;;1.70;1.10;;;;;;;6.08;56.29;102513.94;4895830;29;20405;-85
2024/01/24 01:17:50;;;;;;;0.85;0.80;;;;;;;6.11;55.94;102511.94;4894626;29;20750;-85
2024/01/24 01:20:19;;;;;;;1.10;0.80;;;;;;;5.92;56.50;102508.75;4894875;29;20397;-86
2024/01/24 01:22:45;;;;;;;0.50;0.50;;;;;;;6.06;56.58;102515.81;4900832;29;20417;-87
2024/01/24 01:25:14;;;;;;;0.75;0.57;;;;;;;5.99;56.29;102506.63;4902501;29;20466;-86
2024/01/24 01:27:40;;;;;;;0.73;0.60;;;;;;;5.88;56.63;102486.19;4901865;29;20421;-86
2024/01/24 01:30:09;;;;;;;1.38;1.27;;;;;;;5.97;56.10;102484.81;4913115;29;20415;-87
2024/01/24 01:32:35;;;;;;;0.90;0.80;;;;;;;6.01;55.79;102479.25;4912697;29;20413;-88
2024/01/24 01:35:00;;;;;;;0.97;0.97;;;;;;;5.94;56.09;102484.03;4897012;29;20409;-87
2024/01/24 01:37:26;;;;;;;0.60;0.60;;;;;;;6.14;55.59;102468.81;4903143;29;20404;-84
2024/01/24 01:39:52;;;;;;;0.50;0.40;;;;;;;6.17;54.99;102475.66;4927073;29;20396;-87
2024/01/24 01:42:17;;;;;;;1.05;1.05;;;;;;;6.26;55.05;102462.72;4913246;29;20415;-86
2024/01/24 01:44:48;;;;;;;0.30;0.30;;;;;;;6.16;54.67;102468.69;4896768;29;20404;-86
2024/01/24 01:47:15;;;;;;;0.75;0.75;;;;;;;6.12;54.82;102470.66;4896598;29;20491;-86
2024/01/24 01:49:44;;;;;;;0.83;0.47;;;;;;;6.24;54.64;102471.69;4912337;29;20990;-87
2024/01/24 01:52:11;;;;;;;0.70;0.70;;;;;;;6.26;54.43;102467.16;4912475;29;20420;-87
2024/01/24 01:54:40;;;;;;;0.38;0.38;;;;;;;6.32;54.38;102480.78;4897106;29;20404;-87
2024/01/24 01:57:08;;;;;;;0.90;0.77;;;;;;;6.18;54.49;102478.19;4918054;29;20376;-83
2024/01/24 01:59:35;;;;;;;0.73;0.73;;;;;;;6.27;54.32;102482.88;4923774;29;20455;-86
2024/01/24 02:02:02;;;;;;;1.48;0.57;;;;;;;6.23;54.20;102497.19;4913037;29;20400;-85
2024/01/24 02:04:28;;;;;;;0.30;0.30;;;;;;;6.21;54.60;102485.03;4896716;29;20495;-86
2024/01/24 02:06:57;;;;;;;0.43;0.43;;;;;;;6.37;54.27;102484.91;4907997;29;20486;-86
2024/01/24 02:09:23;;;;;;;1.00;1.00;;;;;;;6.24;54.19;102484.84;4894385;29;20399;-86
2024/01/24 02:11:52;;;;;;;0.60;0.60;;;;;;;6.28;54.18;102487.22;4895414;29;20424;-86
2024/01/24 02:14:18;;;;;;;1.08;0.70;;;;;;;6.29;54.06;102498.56;4893409;29;20416;-86
2024/01/24 02:16:43;;;;;;;1.10;0.85;;;;;;;6.12;54.50;102489.97;4892656;29;20437;-84
2024/01/24 02:19:10;;;;;;;1.27;1.08;;;;;;;6.24;54.05;102492.75;4892476;29;20406;-87
2024/01/24 02:21:36;;;;;;;2.30;2.10;;;;;;;6.35;54.02;102495.53;4892700;29;20402;-85
2024/01/24 02:24:03;;;;;;;0.88;0.77;;;;;;;6.36;53.94;102497.25;4892050;29;20402;-87
2024/01/24 02:26:29;;;;;;;0.93;0.73;;;;;;;6.36;53.55;102497.25;4893380;29;20429;-86
2024/01/24 02:28:55;;;;;;;1.73;0.80;;;;;;;6.31;53.68;102497.53;4897847;29;20398;-87
2024/01/24 02:31:20;;;;;;;1.33;0.80;;;;;;;6.28;53.76;102494.22;4898431;29;20743;-85
2024/01/24 02:33:46;;;;;;;1.00;0.70;;;;;;;6.27;53.48;102488.13;4897889;29;20421;-85
2024/01/24 02:36:14;;;;;;;0.20;0.20;;;;;;;6.51;53.30;102493.59;4898060;29;20818;-86
2024/01/24 02:38:41;;;;;;;1.80;0.80;;;;;;;6.46;52.95;102494.84;4904773;29;20390;-85
2024/01/24 02:41:09;;;;;;;0.68;0.52;;;;;;;6.53;52.93;102488.22;4900596;29;20409;-84
2024/01/24 02:43:35;;;;;;;2.00;1.60;;;;;;;6.45;53.15;102480.00;4885151;29;20770;-85
2024/01/24 02:46:01;;;;;;;0.60;0.60;;;;;;;6.47;52.89;102486.00;4899224;29;20394;-85
2024/01/24 02:48:27;;;;;;;1.08;1.08;;;;;;;6.41;52.99;102484.63;4899224;29;20403;-84
2024/01/24 02:50:53;;;;;;;0.80;0.77;;;;;;;6.51;52.54;102492.75;4897010;29;20478;-85
2024/01/24 02:53:19;;;;;;;0.80;0.80;;;;;;;6.65;52.50;102503.25;4880736;29;20422;-87
2024/01/24 02:55:45;;;;;;;1.13;0.83;;;;;;;6.76;52.41;102504.34;4898206;29;20485;-86
2024/01/24 02:58:11;;;;;;;1.20;1.10;;;;;;;6.70;52.55;102497.69;4881246;29;20409;-86
2024/01/24 03:00:37;;;;;;;0.35;0.30;;;;;;;6.79;51.87;102501.50;4897586;29;20406;-86
2024/01/24 03:03:03;;;;;;;0.77;0.70;;;;;;;6.99;51.98;102510.75;4897445;29;20437;-86
2024/01/24 03:05:28;;;;;;;0.47;0.38;;;;;;;7.16;51.70;102501.69;4881879;29;20861;-87
2024/01/24 03:07:54;;;;;;;1.50;0.95;;;;;;;7.33;51.88;102498.75;4897162;29;20925;-87
2024/01/24 03:10:22;;;;;;;0.70;0.70;;;;;;;7.41;51.48;102509.63;4895556;29;20394;-87
2024/01/24 03:12:49;;;;;;;0.43;0.40;;;;;;;7.28;51.57;102517.53;4896248;29;20422;-87
2024/01/24 03:15:14;;;;;;;0.53;0.50;;;;;;;7.20;51.44;102516.34;4895825;29;20942;-86
2024/01/24 03:17:42;;;;;;;0.10;0.10;;;;;;;7.16;51.58;102514.88;4896236;29;20441;-85
2024/01/24 03:20:08;;;;;;;1.40;1.00;;;;;;;7.09;51.91;102506.53;4896510;29;20774;-86
2024/01/24 03:22:33;;;;;;;0.75;0.38;;;;;;;7.06;51.39;102514.66;4895780;29;20949;-86
2024/01/24 03:24:59;;;;;;;0.30;0.30;;;;;;;7.04;51.51;102509.47;4904313;29;20406;-85
2024/01/24 03:27:25;;;;;;;0.63;0.57;;;;;;;7.02;51.51;102507.88;4897934;29;20497;-87
2024/01/24 03:29:50;;;;;;;0.32;0.30;;;;;;;6.91;51.91;102508.59;4897474;29;20770;-85
2024/01/24 03:32:18;;;;;;;0.40;0.40;;;;;;;6.81;51.70;102516.28;4898500;29;20418;-85
2024/01/24 03:34:52;;;;;;;0.47;0.47;;;;;;;6.72;51.84;102510.75;4896604;29;20413;-84
2024/01/24 03:37:18;;;;;;;0.40;0.30;;;;;;;6.74;51.57;102512.34;4900306;29;20402;-83
2024/01/24 03:39:44;;;;;;;0.30;0.30;;;;;;;6.89;51.77;102521.03;4911182;29;20413;-86
2024/01/24 03:42:10;;;;;;;2.80;1.40;;;;;;;6.95;51.53;102536.47;4897975;29;20906;-86
2024/01/24 03:44:36;;;;;;;0.37;0.37;;;;;;;6.82;51.74;102525.84;4897760;29;20410;-87
2024/01/24 03:47:01;;;;;;;0.30;0.30;;;;;;;6.89;51.17;102528.94;4898176;29;20453;-86
2024/01/24 03:49:27;;;;;;;0.90;0.90;;;;;;;6.84;51.29;102531.91;4897191;29;21031;-85
2024/01/24 03:51:53;;;;;;;0.32;0.30;;;;;;;6.91;51.29;102536.75;4897620;29;20394;-85
2024/01/24 03:54:19;;;;;;;0.30;0.30;;;;;;;6.81;51.18;102539.16;4897644;29;20406;-85
2024/01/24 03:56:46;;;;;;;0.47;0.47;;;;;;;6.63;51.49;102543.84;4900789;29;20391;-82
2024/01/24 03:59:11;;;;;;;0.67;0.67;;;;;;;6.58;51.61;102551.19;4910333;29;20433;-86
2024/01/24 04:01:40;;;;;;;0.75;0.60;;;;;;;6.47;51.60;102544.81;4897791;29;20473;-87
2024/01/24 04:04:06;;;;;;;1.23;1.13;;;;;;;6.45;51.56;102538.78;4898125;29;20394;-86
2024/01/24 04:06:31;;;;;;;0.68;0.68;;;;;;;6.44;51.46;102538.88;4897013;29;20394;-86
2024/01/24 04:08:57;;;;;;;1.00;0.67;;;;;;;6.39;51.63;102541.84;4895808;29;20485;-87
2024/01/24 04:11:23;;;;;;;1.33;0.80;;;;;;;6.22;51.90;102542.88;4895827;29;20440;-86
2024/01/24 04:13:56;;;;;;;0.57;0.50;;;;;;;6.21;51.71;102557.00;4895565;29;20470;-87
2024/01/24 04:16:22;;;;;;;0.82;0.57;;;;;;;6.14;52.03;102547.78;4895667;29;20394;-86
2024/01/24 04:18:50;;;;;;;0.80;0.80;;;;;;;6.22;51.75;102557.84;4897514;29;20398;-86
2024/01/24 04:21:18;;;;;;;2.20;1.08;;;;;;;6.23;51.96;102556.88;4897505;29;20485;-86
2024/01/24 04:23:44;;;;;;;0.47;0.47;;;;;;;6.15;51.91;102567.91;4896373;29;20402;-87
2024/01/24 04:26:10;;;;;;;0.90;0.85;;;;;;;6.05;51.88;102566.78;4896129;29;20475;-88
2024/01/24 04:28:36;;;;;;;0.82;0.70;;;;;;;5.97;52.12;102590.09;4896133;29;20743;-87
2024/01/24 04:31:02;;;;;;;0.95;0.52;;;;;;;5.88;52.37;102584.41;4896189;29;20404;-88
2024/01/24 04:33:27;;;;;;;0.68;0.68;;;;;;;5.77;52.80;102571.06;4880359;29;20436;-86
2024/01/24 04:35:55;;;;;;;0.50;0.50;;;;;;;5.57;53.41;102579.31;4896237;29;20398;-86
2024/01/24 04:38:21;;;;;;;0.60;0.57;;;;;;;5.52;53.49;102584.84;4896031;29;20402;-87
2024/01/24 04:40:47;;;;;;;0.60;0.45;;;;;;;5.38;53.73;102572.50;4896166;29;20410;-86
2024/01/24 04:43:14;;;;;;;1.13;0.60;;;;;;;5.51;53.73;102567.34;4896147;29;20422;-85
2024/01/24 04:45:46;;;;;;;2.20;0.90;;;;;;;5.62;53.59;102561.44;4897933;29;20426;-86
2024/01/24 04:48:11;;;;;;;0.53;0.50;;;;;;;5.59;53.31;102565.13;4900469;29;20497;-85
2024/01/24 04:50:37;;;;;;;2.33;1.40;;;;;;;5.55;53.58;102571.53;4899150;29;20437;-85
2024/01/24 04:53:03;;;;;;;0.90;0.87;;;;;;;5.55;53.61;102564.47;4899809;29;20429;-85
2024/01/24 04:55:29;;;;;;;0.60;0.60;;;;;;;5.55;53.62;102567.09;4900533;29;20482;-84
2024/01/24 04:57:54;;;;;;;0.50;0.50;;;;;;;5.61;53.07;102570.31;4900938;29;20778;-85
2024/01/24 05:00:20;;;;;;;0.83;0.83;;;;;;;5.56;53.66;102583.72;4894464;29;20398;-87
2024/01/24 05:02:47;;;;;;;2.10;1.90;;;;;;;5.52;53.77;102584.84;4896560;29;20473;-87
2024/01/24 05:05:13;;;;;;;1.50;1.23;;;;;;;5.60;53.50;102593.16;4893710;29;20476;-85
2024/01/24 05:07:38;;;;;;;1.50;1.40;;;;;;;5.47;53.85;102585.09;4895107;29;20961;-84
2024/01/24 05:10:05;;;;;;;1.13;1.13;;;;;;;5.49;53.30;102593.78;4894224;29;20828;-87
2024/01/24 05:12:31;;;;;;;6.55;5.22;;;;;;;5.50;53.77;102594.63;4894326;29;20438;-85
2024/01/24 05:14:57;;;;;;;16.20;5.88;;;;;;;5.55;53.24;102597.81;4896305;29;20906;-85
2024/01/24 05:17:23;;;;;;;0.80;0.80;;;;;;;5.58;53.64;102602.88;4897742;29;20410;-85
2024/01/24 05:19:49;;;;;;;1.07;0.97;;;;;;;5.53;53.20;102600.53;4895762;29;20402;-85
2024/01/24 05:22:17;;;;;;;2.10;1.20;;;;;;;5.44;53.53;102587.06;4895579;29;20493;-85
2024/01/24 05:24:44;;;;;;;0.82;0.82;;;;;;;5.47;53.51;102587.72;4896312;29;20865;-85
2024/01/24 05:27:10;;;;;;;0.80;0.80;;;;;;;5.60;53.20;102587.88;4897722;29;20782;-84
2024/01/24 05:29:36;;;;;;;0.55;0.55;;;;;;;5.62;53.45;102580.75;4895041;29;20878;-85
2024/01/24 05:32:01;;;;;;;2.60;1.70;;;;;;;5.47;53.29;102587.72;4895289;29;20497;-84
2024/01/24 05:34:30;;;;;;;0.80;0.80;;;;;;;5.58;53.16;102594.16;4895642;29;20402;-84
2024/01/24 05:37:02;;;;;;;1.20;1.02;;;;;;;5.59;53.31;102591.44;4899013;29;20409;-84
2024/01/24 05:39:28;;;;;;;0.43;0.43;;;;;;;5.71;53.08;102603.03;4888188;29;20403;-85
2024/01/24 05:41:53;;;;;;;0.33;0.33;;;;;;;5.57;53.17;102588.06;4894895;29;20476;-87
2024/01/24 05:44:23;;;;;;;1.00;0.60;;;;;;;5.57;53.32;102589.84;4896118;29;20972;-85
2024/01/24 05:46:48;;;;;;;0.20;0.20;;;;;;;5.56;53.34;102586.34;4895854;29;20398;-85
2024/01/24 05:49:18;;;;;;;0.40;0.40;;;;;;;5.54;53.47;102583.81;4895615;29;20406;-84
2024/01/24 05:51:47;;;;;;;0.85;0.80;;;;;;;5.51;53.23;102580.50;4879868;29;20402;-86
2024/01/24 05:54:17;;;;;;;0.90;0.80;;;;;;;5.46;53.58;102582.59;4895547;29;20437;-86
2024/01/24 05:56:45;;;;;;;0.93;0.80;;;;;;;5.52;53.23;102580.41;4899650;29;20438;-84
2024/01/24 05:59:14;;;;;;;1.10;0.82;;;;;;;5.50;53.19;102579.66;4898840;29;20401;-84
2024/01/24 06:01:39;;;;;;;0.77;0.77;;;;;;;5.46;53.28;102575.53;4892265;29;20394;-85
2024/01/24 06:04:05;;;;;;;1.57;1.47;;;;;;;5.50;53.61;102579.66;4891682;29;20838;-85
2024/01/24 06:06:33;;;;;;;1.02;0.93;;;;;;;5.50;53.39;102582.31;4891741;29;20496;-84
2024/01/24 06:08:58;;;;;;;2.00;1.20;;;;;;;5.53;53.35;102579.50;4893943;29;20398;-84
2024/01/24 06:11:26;;;;;;;0.80;0.80;;;;;;;5.49;53.07;102575.38;4893559;29;20418;-84
2024/01/24 06:13:55;;;;;;;1.73;1.63;;;;;;;5.54;53.52;102585.59;4893977;29;20493;-83
2024/01/24 06:16:20;;;;;;;0.60;0.60;;;;;;;5.54;53.39;102585.59;4894966;29;20429;-82
2024/01/24 06:18:49;;;;;;;2.27;1.47;;;;;;;5.52;53.46;102595.38;4895214;29;20394;-84
2024/01/24 06:21:15;;;;;;;1.70;1.60;;;;;;;5.51;53.50;102585.75;4893845;29;20401;-84
2024/01/24 06:23:40;;;;;;;1.17;1.13;;;;;;;5.59;53.44;102587.97;4894623;29;20406;-86
2024/01/24 06:26:09;;;;;;;3.47;2.13;;;;;;;5.64;53.34;102588.53;4895255;29;20519;-86
2024/01/24 06:28:37;;;;;;;0.68;0.68;;;;;;;5.75;53.19;102600.09;4895864;29;20398;-84
2024/01/24 06:31:06;;;;;;;1.50;1.25;;;;;;;5.80;53.16;102591.94;4894723;29;20803;-84
2024/01/24 06:33:31;;;;;;;0.68;0.57;;;;;;;5.75;54.00;102583.47;4893570;29;20458;-84
2024/01/24 06:36:00;;;;;;;0.53;0.53;;;;;;;5.89;53.48;102588.75;4894000;29;21023;-86
2024/01/24 06:38:25;;;;;;;1.27;1.17;;;;;;;5.79;53.42;102573.63;4895121;29;20417;-86
2024/01/24 06:41:03;;;;;;;0.75;0.75;;;;;;;5.83;53.61;102578.56;4895947;29;20770;-88
2024/01/24 06:43:29;;;;;;;1.23;0.73;;;;;;;5.81;53.27;102585.72;4897312;29;20433;-86
2024/01/24 06:45:55;;;;;;;1.27;1.17;;;;;;;5.79;53.60;102598.13;4896631;29;20403;-85
2024/01/24 06:48:20;;;;;;;0.57;0.57;;;;;;;5.71;53.68;102593.34;4895688;29;20418;-86
2024/01/24 06:50:46;;;;;;;0.40;0.40;;;;;;;5.70;53.52;102594.25;4894655;29;20433;-85
2024/01/24 06:53:14;;;;;;;1.23;1.20;;;;;;;5.78;53.34;102591.19;4897355;29;20453;-87
2024/01/24 06:55:40;;;;;;;1.15;1.15;;;;;;;5.88;53.35;102597.56;4897243;29;20909;-88
2024/01/24 06:58:09;;;;;;;0.25;0.25;;;;;;;5.95;53.38;102613.84;4898062;29;20405;-88
2024/01/24 07:00:34;;;;;;;1.15;1.05;;;;;;;5.98;53.19;102611.06;4882527;29;20425;-87
2024/01/24 07:03:00;;;;;;;0.70;0.70;;;;;;;5.98;53.28;102624.25;4896853;29;20755;-87
2024/01/24 07:05:27;;;;;;;1.20;1.10;;;;;;;6.00;53.17;102618.88;4898102;29;20809;-86
2024/01/24 07:07:55;;;;;;;0.65;0.65;;;;;;;5.94;52.83;102620.91;4896416;29;20446;-87
2024/01/24 07:10:21;;;;;;;0.82;0.82;;;;;;;5.92;53.14;102629.81;4895814;29;20395;-88
2024/01/24 07:12:49;;;;;;;1.80;1.70;;;;;;;5.81;53.44;102630.47;4897162;29;20429;-87
2024/01/24 07:15:16;;;;;;;2.67;2.47;;;;;;;5.80;53.42;102633.19;4899743;29;20405;-86
2024/01/24 07:17:44;;;;;;;2.90;2.35;;;;;;;5.92;53.47;102632.47;4900334;29;20398;-90
2024/01/24 07:20:13;;;;;;;1.55;1.27;;;;;;;5.92;53.21;102638.59;4902662;29;20450;-87
2024/01/24 07:22:42;;;;;;;1.40;1.30;;;;;;;6.12;53.10;102644.44;4900412;29;20458;-87
2024/01/24 07:25:08;;;;;;;1.65;1.30;;;;;;;6.12;53.27;102631.28;4900414;29;20410;-86
2024/01/24 07:27:36;;;;;;;0.57;0.57;;;;;;;6.09;52.96;102631.50;4901971;29;20398;-89
2024/01/24 07:30:05;;;;;;;1.02;1.02;;;;;;;6.13;52.92;102627.72;4888272;29;20465;-88
2024/01/24 07:32:32;;;;;;;1.42;0.98;;;;;;;6.21;52.77;102646.53;4901295;29;20473;-87
2024/01/24 07:34:59;;;;;;;0.90;0.90;;;;;;;6.16;52.81;102642.47;4901060;29;20405;-88
2024/01/24 07:37:25;;;;;;;1.17;1.10;;;;;;;6.24;53.05;102641.06;4904943;29;20398;-87
2024/01/24 07:39:50;;;;;;;0.70;0.70;;;;;;;6.08;53.19;102646.41;4910115;29;20397;-87
2024/01/24 07:42:18;;;;;;;0.47;0.47;;;;;;;6.16;52.98;102655.63;4905514;29;20402;-87
2024/01/24 07:44:49;;;;;;;0.45;0.45;;;;;;;6.20;52.89;102652.75;4902950;29;20782;-88
2024/01/24 07:47:20;;;;;;;0.98;0.82;;;;;;;6.24;52.69;102648.97;4903170;29;20459;-87
2024/01/24 07:49:45;;;;;;;0.73;0.73;;;;;;;6.32;52.55;102653.78;4904544;29;20407;-91
2024/01/24 07:52:14;;;;;;;1.00;0.77;;;;;;;6.35;52.55;102652.75;4902940;29;20414;-88
2024/01/24 07:54:43;;;;;;;1.33;0.73;;;;;;;6.42;52.49;102643.50;4901288;29;20490;-87
2024/01/24 07:57:09;;;;;;;0.80;0.70;;;;;;;6.50;52.68;102636.84;4907250;29;20402;-84
2024/01/24 07:59:35;;;;;;;0.40;0.40;;;;;;;6.41;52.25;102637.41;4905243;29;20405;-86
2024/01/24 08:02:02;;;;;;;1.03;0.63;;;;;;;6.52;52.60;102636.75;4901071;29;20386;-86
2024/01/24 08:04:30;;;;;;;1.05;1.02;;;;;;;6.60;52.48;102636.25;4902034;29;20663;-88
2024/01/24 08:06:58;;;;;;;1.45;1.35;;;;;;;6.73;52.67;102625.78;4899707;29;20417;-86
2024/01/24 08:09:23;;;;;;;0.47;0.38;;;;;;;6.70;52.01;102627.66;4901442;29;20401;-88
2024/01/24 08:11:49;;;;;;;1.55;0.80;;;;;;;6.62;52.16;102637.84;4902691;29;20430;-86
2024/01/24 08:14:18;;;;;;;0.63;0.40;;;;;;;6.71;52.44;102631.13;4903409;29;20402;-86
2024/01/24 08:17:01;;;;;;;0.57;0.57;;;;;;;6.82;52.47;102638.38;4905227;29;20390;-86
2024/01/24 08:19:27;;;;;;;0.77;0.77;;;;;;;6.96;52.19;102637.50;4903507;29;20417;-88
2024/01/24 08:21:53;;;;;;;0.52;0.52;;;;;;;6.96;52.07;102648.88;4902752;29;20412;-89
2024/01/24 08:24:19;;;;;;;0.53;0.53;;;;;;;7.12;51.71;102647.91;4901437;29;20402;-88
2024/01/24 08:26:44;;;;;;;1.03;0.97;;;;;;;7.23;51.58;102640.13;4901626;29;20527;-87
2024/01/24 08:29:10;;;;;;;1.20;1.13;;;;;;;7.18;51.64;102642.22;4903276;29;20890;-87
2024/01/24 08:31:35;;;;;;;1.27;1.17;;;;;;;7.01;51.44;102653.88;4901655;29;20402;-87
2024/01/24 08:34:02;;;;;;;2.75;2.03;;;;;;;6.83;51.81;102648.81;4901173;29;20418;-87
2024/01/24 08:36:31;;;;;;;1.90;1.30;;;;;;;6.58;51.30;102644.25;4899545;29;20422;-87
2024/01/24 08:38:57;;;;;;;1.52;1.42;;;;;;;6.46;51.49;102653.78;4885111;29;20402;-87
2024/01/24 08:41:23;;;;;;;1.25;1.15;;;;;;;6.30;51.42;102653.88;4884055;29;20409;-87
2024/01/24 08:43:49;;;;;;;0.70;0.70;;;;;;;6.17;51.23;102660.81;4885688;29;20399;-86
2024/01/24 08:46:15;;;;;;;3.08;1.60;;;;;;;6.07;51.70;102665.81;4883209;29;20402;-87
2024/01/24 08:48:41;;;;;;;2.28;1.08;;;;;;;5.91;51.46;102671.09;4902595;29;20932;-86
2024/01/24 08:51:08;;;;;;;1.00;1.00;;;;;;;5.65;51.66;102662.09;4903618;29;20470;-86
2024/01/24 08:53:33;;;;;;;1.65;1.55;;;;;;;5.75;51.51;102665.06;4900714;29;20437;-86
2024/01/24 08:55:59;;;;;;;2.25;1.77;;;;;;;5.81;51.41;102658.56;4884200;29;20403;-87
2024/01/24 08:58:25;;;;;;;2.42;1.70;;;;;;;5.81;51.26;102659.41;4884299;29;20398;-87
2024/01/24 09:00:51;;;;;;;2.47;2.28;;;;;;;5.81;51.37;102664.69;4882923;29;20408;-87
2024/01/24 09:03:18;;;;;;;0.63;0.63;;;;;;;5.55;51.79;102659.16;4883857;29;20497;-91
2024/01/24 09:05:45;;;;;;;1.20;1.10;;;;;;;5.53;52.07;102655.78;4882909;29;21127;-87
2024/01/24 09:08:11;;;;;;;0.98;0.88;;;;;;;5.55;52.00;102650.44;4897683;29;21009;-87
2024/01/24 09:10:44;;;;;;;1.90;1.10;;;;;;;5.36;52.15;102630.44;4881297;29;20410;-89
2024/01/24 09:13:10;;;;;;;1.60;1.50;;;;;;;5.40;52.67;102643.41;4902421;29;20424;-87
2024/01/24 09:15:37;;;;;;;1.57;1.47;;;;;;;5.40;52.40;102646.06;4893004;29;20438;-90
2024/01/24 09:18:06;;;;;;;1.38;1.27;;;;;;;5.53;52.09;102654.94;4909161;29;20402;-88
2024/01/24 09:20:34;;;;;;;2.40;1.42;;;;;;;5.52;51.97;102634.81;4910348;29;20398;-88
2024/01/24 09:23:00;;;;;;;1.30;1.20;;;;;;;5.35;52.03;102626.13;4902050;29;20490;-86
2024/01/24 09:25:26;;;;;;;2.40;1.30;;;;;;;5.26;52.45;102629.28;4902178;29;20426;-87
2024/01/24 09:27:56;;;;;;;0.50;0.50;;;;;;;5.25;52.41;102630.22;4901878;29;20496;-88
2024/01/24 09:30:22;;;;;;;0.65;0.65;;;;;;;5.04;52.83;102634.94;4899235;29;20416;-86
2024/01/24 09:32:48;;;;;;;0.97;0.97;;;;;;;4.96;52.61;102629.25;4898193;29;20498;-87
2024/01/24 09:35:14;;;;;;;0.90;0.83;;;;;;;4.51;53.40;102631.69;4898689;29;20394;-88
2024/01/24 09:37:41;;;;;;;2.20;1.97;;;;;;;4.47;53.79;102619.66;4901865;29;20386;-87
2024/01/24 09:40:15;;;;;;;2.60;2.40;;;;;;;4.45;53.81;102621.53;4905236;29;20402;-85
2024/01/24 09:42:46;;;;;;;1.05;0.85;;;;;;;4.59;53.78;102628.63;4901162;29;20790;-89
2024/01/24 09:45:17;;;;;;;1.58;1.15;;;;;;;4.50;53.73;102611.63;4899927;29;20485;-88
2024/01/24 09:47:47;;;;;;;1.85;1.75;;;;;;;4.38;53.44;102614.91;4870135;29;20438;-87
2024/01/24 09:50:19;;;;;;;1.60;1.50;;;;;;;4.06;54.28;102598.25;4900205;29;20400;-89
2024/01/24 09:52:47;;;;;;;3.60;2.88;;;;;;;4.05;54.17;102599.16;4899875;29;20414;-87
2024/01/24 09:55:15;;;;;;;3.20;2.60;;;;;;;4.08;54.00;102596.41;4898787;29;20403;-89
2024/01/24 09:57:44;;;;;;;1.50;1.40;;;;;;;3.97;54.42;102599.59;4897101;29;20434;-88
2024/01/24 10:00:24;;;;;;;1.75;1.65;;;;;;;3.97;54.70;102599.59;4900611;29;20430;-87
2024/01/24 10:02:50;;;;;;;3.35;3.05;;;;;;;3.86;54.91;102591.44;4886936;29;20414;-87
2024/01/24 10:05:17;;;;;;;0.57;0.57;;;;;;;4.02;54.58;102587.91;4896101;29;20398;-86
2024/01/24 10:07:46;;;;;;;5.33;2.63;;;;;;;3.89;54.52;102584.25;4880444;29;20410;-87
2024/01/24 10:10:15;;;;;;;0.60;0.60;;;;;;;4.07;54.57;102586.81;4898635;29;20398;-88
2024/01/24 10:13:02;;;;;;;1.57;1.47;;;;;;;4.12;54.26;102577.75;4898526;29;20434;-88
2024/01/24 10:15:30;;;;;;;1.80;1.70;;;;;;;4.04;54.42;102572.09;4883323;29;20406;-90
2024/01/24 10:17:56;;;;;;;2.00;1.60;;;;;;;3.86;54.87;102576.53;4900043;29;20398;-87
2024/01/24 10:20:21;;;;;;;2.10;1.90;;;;;;;3.72;55.33;102561.50;4896697;29;20408;-87
2024/01/24 10:22:47;;;;;;;2.00;1.87;;;;;;;3.82;54.93;102554.03;4897294;29;20917;-88
2024/01/24 10:25:13;;;;;;;3.63;1.58;;;;;;;3.87;54.80;102552.00;4900156;29;20410;-88
2024/01/24 10:27:41;;;;;;;3.83;3.22;;;;;;;3.89;54.89;102537.03;4911138;29;20442;-87
2024/01/24 10:30:11;;;;;;;0.87;0.87;;;;;;;3.68;55.56;102553.88;4910295;29;20406;-88
2024/01/24 10:32:37;;;;;;;0.60;0.60;;;;;;;3.67;55.77;102547.78;4894888;29;20422;-88
2024/01/24 10:35:06;;;;;;;1.90;1.67;;;;;;;3.59;55.83;102545.56;4911142;29;20742;-88
2024/01/24 10:37:34;;;;;;;1.40;1.30;;;;;;;3.76;55.68;102533.34;4897974;29;20418;-88
2024/01/24 10:40:11;;;;;;;1.57;1.43;;;;;;;3.62;56.41;102529.66;4884524;29;20426;-88
2024/01/24 10:42:41;;;;;;;2.20;2.10;;;;;;;3.40;57.13;102536.94;4901288;29;20926;-86
2024/01/24 10:45:17;;;;;;;0.90;0.80;;;;;;;3.35;57.18;102524.09;4900120;29;20898;-88
2024/01/24 10:47:45;;;;;;;1.87;1.67;;;;;;;3.55;56.80;102515.19;4899975;29;20551;-88
2024/01/24 10:50:12;;;;;;;1.27;1.17;;;;;;;3.57;56.86;102504.63;4900727;29;20409;-88
2024/01/24 10:52:40;;;;;;;1.45;1.35;;;;;;;3.63;56.89;102514.78;4902326;29;20496;-87
2024/01/24 10:55:14;;;;;;;1.70;1.60;;;;;;;3.63;56.97;102496.41;4901404;29;20547;-87
2024/01/24 10:57:45;;;;;;;1.30;1.27;;;;;;;3.71;56.69;102493.38;4901059;29;20481;-86
2024/01/24 11:00:15;;;;;;;1.17;0.93;;;;;;;3.73;56.57;102489.78;4902766;29;20398;-88
2024/01/24 11:02:41;;;;;;;2.03;1.93;;;;;;;3.54;57.33;102492.50;4892942;29;20447;-88
2024/01/24 11:05:20;;;;;;;1.90;1.40;;;;;;;3.64;56.94;102483.22;4904987;29;20433;-87
2024/01/24 11:07:55;;;;;;;1.38;1.35;;;;;;;3.79;56.59;102493.84;4905073;29;20890;-88
2024/01/24 11:10:27;;;;;;;1.27;0.95;;;;;;;3.67;56.77;102484.00;4903312;29;20406;-88
2024/01/24 11:12:52;;;;;;;0.85;0.80;;;;;;;3.79;56.62;102475.47;4887584;29;20441;-87
2024/01/24 11:15:22;;;;;;;1.33;1.23;;;;;;;3.74;57.11;102459.97;4904730;29;20929;-87
2024/01/24 11:18:20;;;;;;;1.70;0.70;;;;;;;3.83;57.03;102454.25;4903731;29;20406;-87
2024/01/24 11:20:58;;;;;;;0.50;0.50;;;;;;;3.88;56.87;102450.53;4900804;29;20406;-87
2024/01/24 11:23:45;;;;;;;2.00;1.85;;;;;;;3.89;57.20;102445.19;4898757;29;20406;-86
2024/01/24 11:26:18;;;;;;;2.50;1.65;;;;;;;4.46;56.40;102444.66;4889058;29;20409;-88
2024/01/24 11:28:45;;;;;;;0.82;0.82;;;;;;;4.51;55.78;102442.59;4904626;29;20499;-86
2024/01/24 11:31:13;;;;;;;0.60;0.47;;;;;;;4.30;56.40;102444.66;4920599;29;20441;-87
2024/01/24 11:34:14;;;;;;;1.00;1.00;;;;;;;4.07;56.94;102419.72;4921300;29;20419;-88